Time;durP1;ratioP1;P1;durP2;ratioP2;P2;SDS_P1;SDS_P2;PMS_P1;PMS_P2;Temp;Humidity;BMP_temperature;BMP_pressure;BME280_temperature;BME280_humidity;BME280_pressure;Samples;Min_cycle;Max_cycle;Signal;HPM_P1;HPM_P2
2022/03/23 00:01:09;;;;;;;18.57;12.67;;;10.00;65.10;;;;;;5058468;28;20215;-40
2022/03/23 00:03:36;;;;;;;17.37;12.90;;;10.00;64.70;;;;;;5056069;28;20280;-40
2022/03/23 00:06:03;;;;;;;16.53;12.50;;;9.80;66.00;;;;;;5072839;28;20178;-41
2022/03/23 00:08:28;;;;;;;16.70;12.73;;;9.70;67.10;;;;;;5074471;28;21031;-40
2022/03/23 00:10:54;;;;;;;13.93;11.60;;;9.80;67.60;;;;;;5051283;28;20420;-40
2022/03/23 00:13:20;;;;;;;15.33;12.67;;;9.80;67.40;;;;;;5049357;28;20202;-41
2022/03/23 00:15:46;;;;;;;14.17;11.47;;;9.70;67.50;;;;;;5061829;28;20192;-42
2022/03/23 00:18:12;;;;;;;14.10;11.50;;;9.60;67.90;;;;;;5077290;28;20251;-41
2022/03/23 00:20:39;;;;;;;15.77;12.40;;;9.60;67.70;;;;;;5050750;28;20190;-41
2022/03/23 00:23:05;;;;;;;16.30;12.10;;;9.60;68.40;;;;;;5050416;28;20577;-41
2022/03/23 00:25:31;;;;;;;16.00;13.37;;;9.30;68.70;;;;;;5048944;28;20586;-41
2022/03/23 00:27:57;;;;;;;14.50;12.07;;;9.20;68.60;;;;;;5049230;28;20273;-40
2022/03/23 00:30:23;;;;;;;14.90;11.53;;;9.20;70.00;;;;;;5058249;28;21000;-40
2022/03/23 00:32:50;;;;;;;14.20;12.17;;;8.90;70.10;;;;;;5073246;28;20423;-40
2022/03/23 00:35:15;;;;;;;18.97;12.83;;;9.00;70.10;;;;;;5052846;28;20491;-40
2022/03/23 00:37:43;;;;;;;18.80;13.43;;;8.90;71.60;;;;;;5048946;28;21002;-42
2022/03/23 00:40:09;;;;;;;16.57;11.60;;;9.10;71.70;;;;;;5049056;28;20186;-42
2022/03/23 00:42:35;;;;;;;18.17;12.00;;;8.90;71.80;;;;;;5047455;28;20459;-42
2022/03/23 00:45:03;;;;;;;15.10;12.17;;;8.80;72.30;;;;;;5048443;28;20429;-43
2022/03/23 00:47:29;;;;;;;15.73;11.53;;;8.80;71.90;;;;;;5063413;28;20230;-40
2022/03/23 00:49:54;;;;;;;16.70;12.50;;;8.60;73.60;;;;;;5067474;28;20628;-40
2022/03/23 00:52:20;;;;;;;19.33;13.30;;;8.80;74.90;;;;;;5048623;28;20439;-41
2022/03/23 00:54:46;;;;;;;16.00;12.60;;;8.60;75.20;;;;;;5059187;28;20193;-40
2022/03/23 00:57:12;;;;;;;17.27;13.67;;;8.70;74.80;;;;;;5047369;28;20763;-40
2022/03/23 00:59:37;;;;;;;17.93;12.90;;;8.50;76.60;;;;;;5048116;28;20481;-40
2022/03/23 01:02:05;;;;;;;17.70;14.37;;;8.70;77.30;;;;;;5064360;28;20207;-40
2022/03/23 01:04:31;;;;;;;22.70;14.83;;;8.80;75.30;;;;;;5069464;28;20189;-44
2022/03/23 01:06:58;;;;;;;20.10;13.30;;;8.90;75.80;;;;;;5048481;28;20420;-41
2022/03/23 01:09:25;;;;;;;16.00;13.57;;;9.20;74.80;;;;;;5053819;28;20527;-41
2022/03/23 01:11:52;;;;;;;20.60;13.90;;;9.00;74.80;;;;;;5048052;28;20424;-40
2022/03/23 01:14:19;;;;;;;18.33;14.27;;;8.80;77.60;;;;;;5048336;28;20424;-40
2022/03/23 01:16:45;;;;;;;18.47;13.73;;;8.80;78.60;;;;;;5065964;28;20462;-42
2022/03/23 01:19:12;;;;;;;19.73;14.30;;;8.60;80.10;;;;;;5070749;28;20432;-41
2022/03/23 01:21:37;;;;;;;17.47;12.93;;;8.60;81.00;;;;;;5047142;28;21112;-41
2022/03/23 01:24:06;;;;;;;15.00;12.73;;;8.40;81.20;;;;;;5049590;28;20475;-40
2022/03/23 01:26:32;;;;;;;15.67;12.80;;;8.60;81.60;;;;;;5048089;28;20451;-42
2022/03/23 01:28:58;;;;;;;18.03;13.67;;;8.60;82.40;;;;;;5046489;28;20428;-41
2022/03/23 01:31:24;;;;;;;18.20;13.17;;;8.50;82.60;;;;;;5053437;28;20433;-43
2022/03/23 01:33:50;;;;;;;15.30;12.10;;;8.30;82.90;;;;;;5052425;28;20421;-40
2022/03/23 01:36:15;;;;;;;17.13;13.80;;;8.10;83.40;;;;;;5052916;28;20186;-41
2022/03/23 01:38:41;;;;;;;16.80;13.17;;;8.00;84.80;;;;;;5049973;28;20740;-43
2022/03/23 01:41:07;;;;;;;17.83;12.80;;;8.10;86.00;;;;;;5054544;28;20502;-40
2022/03/23 01:43:33;;;;;;;19.20;15.07;;;8.40;86.90;;;;;;5047386;28;20216;-41
2022/03/23 01:46:00;;;;;;;21.43;13.93;;;8.40;85.30;;;;;;5046316;28;20959;-40
2022/03/23 01:48:25;;;;;;;21.73;14.37;;;8.40;87.80;;;;;;5056064;28;20494;-40
2022/03/23 01:50:51;;;;;;;16.93;13.43;;;8.40;87.50;;;;;;5058079;28;20515;-41
2022/03/23 01:53:17;;;;;;;19.00;14.07;;;8.60;84.60;;;;;;5047837;28;20194;-41
2022/03/23 01:55:43;;;;;;;19.03;12.70;;;8.80;79.40;;;;;;5052797;28;20276;-43
2022/03/23 01:58:10;;;;;;;17.50;12.83;;;9.10;74.10;;;;;;5047249;28;20211;-40
2022/03/23 02:00:36;;;;;;;15.20;12.43;;;9.10;71.90;;;;;;5049011;28;20613;-41
2022/03/23 02:03:01;;;;;;;14.03;12.20;;;9.40;73.10;;;;;;5055779;28;21114;-42
2022/03/23 02:05:27;;;;;;;15.93;12.77;;;9.20;76.80;;;;;;5068364;28;20186;-40
2022/03/23 02:07:56;;;;;;;16.97;13.73;;;9.00;78.10;;;;;;5047454;28;20224;-40
2022/03/23 02:10:22;;;;;;;16.73;12.90;;;8.90;79.20;;;;;;5048764;28;20206;-40
2022/03/23 02:12:47;;;;;;;18.03;13.50;;;8.80;82.60;;;;;;5047627;28;20424;-41
2022/03/23 02:15:16;;;;;;;17.30;13.30;;;8.80;83.70;;;;;;5046539;28;20802;-43
2022/03/23 02:17:42;;;;;;;14.07;12.20;;;8.60;84.30;;;;;;5058982;28;20185;-41
2022/03/23 02:20:10;;;;;;;14.43;11.27;;;8.90;84.40;;;;;;5062944;28;20409;-41
2022/03/23 02:22:36;;;;;;;17.80;12.23;;;8.90;85.40;;;;;;5047599;28;20904;-40
2022/03/23 02:25:02;;;;;;;17.70;12.00;;;8.70;84.80;;;;;;5058508;28;20419;-40
2022/03/23 02:27:29;;;;;;;17.33;12.67;;;8.70;85.30;;;;;;5047670;28;20439;-41
2022/03/23 02:29:54;;;;;;;14.40;11.70;;;8.50;84.70;;;;;;5046036;28;20477;-40
2022/03/23 02:32:20;;;;;;;15.87;12.30;;;8.40;84.20;;;;;;5054817;28;20442;-42
2022/03/23 02:34:46;;;;;;;12.03;10.77;;;8.50;84.20;;;;;;5058841;28;20288;-41
2022/03/23 02:37:11;;;;;;;15.13;11.70;;;8.50;85.10;;;;;;5047026;28;20189;-42
2022/03/23 02:39:37;;;;;;;14.33;11.87;;;8.20;86.10;;;;;;5053884;28;20587;-40
2022/03/23 02:42:03;;;;;;;14.80;12.00;;;8.40;86.50;;;;;;5047576;28;20229;-41
2022/03/23 02:44:32;;;;;;;15.43;11.70;;;8.20;84.50;;;;;;5046657;28;20188;-42
2022/03/23 02:46:57;;;;;;;19.60;11.10;;;8.20;86.30;;;;;;5055975;28;20720;-46
2022/03/23 02:49:23;;;;;;;17.20;12.80;;;8.10;86.80;;;;;;5073317;28;20442;-41
2022/03/23 02:51:49;;;;;;;14.50;11.83;;;8.20;88.40;;;;;;5046778;28;20193;-40
2022/03/23 03:02:42;;;;;;;14.83;12.13;;;7.90;89.20;;;;;;5060915;28;20470;-40
2022/03/23 03:05:12;;;;;;;16.77;13.70;;;7.90;90.20;;;;;;5063162;28;20474;-44
2022/03/23 03:10:25;;;;;;;17.67;12.97;;;7.80;90.70;;;;;;5059203;28;20427;-41
2022/03/23 03:12:52;;;;;;;15.63;13.60;;;7.60;91.20;;;;;;5046683;28;20424;-40
2022/03/23 03:15:19;;;;;;;18.33;14.27;;;7.80;91.90;;;;;;5046559;28;20447;-41
2022/03/23 03:17:48;;;;;;;17.07;12.83;;;7.70;92.20;;;;;;5062758;28;20924;-41
2022/03/23 03:20:15;;;;;;;19.37;13.07;;;7.60;92.30;;;;;;5066371;28;20519;-41
2022/03/23 03:22:41;;;;;;;17.20;13.60;;;7.30;92.20;;;;;;5047847;28;20478;-43
2022/03/23 03:25:15;;;;;;;16.27;13.10;;;7.40;92.80;;;;;;5055690;28;20484;-41
2022/03/23 03:27:42;;;;;;;20.80;14.17;;;7.40;93.00;;;;;;5033246;28;20485;-42
2022/03/23 03:30:14;;;;;;;21.17;14.13;;;7.40;93.80;;;;;;5045898;28;20489;-41
2022/03/23 03:36:03;;;;;;;19.10;13.77;;;7.20;93.90;;;;;;5068367;28;20809;-44
2022/03/23 03:38:30;;;;;;;19.83;13.60;;;7.30;94.30;;;;;;5049310;28;20855;-40
2022/03/23 03:40:56;;;;;;;15.60;12.60;;;7.40;95.20;;;;;;5050312;28;20495;-42
2022/03/23 03:43:24;;;;;;;19.37;14.73;;;7.30;95.30;;;;;;5048479;28;20872;-42
2022/03/23 03:45:50;;;;;;;17.50;15.10;;;7.20;95.50;;;;;;5050104;28;20510;-43
2022/03/23 03:48:17;;;;;;;22.47;16.27;;;7.40;95.70;;;;;;5049909;28;20434;-42
2022/03/23 03:50:43;;;;;;;20.90;15.93;;;7.30;95.60;;;;;;5054134;28;20440;-41
2022/03/23 03:53:09;;;;;;;21.67;15.93;;;7.40;95.70;;;;;;5069909;28;20412;-42
2022/03/23 03:55:39;;;;;;;20.30;15.97;;;7.40;95.30;;;;;;5052258;28;20442;-43
2022/03/23 03:58:06;;;;;;;18.60;15.70;;;7.50;95.30;;;;;;5053191;28;20204;-40
2022/03/23 04:00:34;;;;;;;19.40;14.93;;;7.60;94.80;;;;;;5057462;28;20443;-40
2022/03/23 04:03:00;;;;;;;21.07;16.10;;;7.80;95.10;;;;;;5049850;28;20516;-41
2022/03/23 04:05:28;;;;;;;24.87;16.47;;;8.00;94.90;;;;;;5052871;28;20446;-41
2022/03/23 04:07:55;;;;;;;22.53;16.43;;;7.70;94.50;;;;;;5057826;28;20424;-41
2022/03/23 04:10:21;;;;;;;24.10;16.83;;;7.70;94.50;;;;;;5055844;28;20428;-42
2022/03/23 04:12:47;;;;;;;24.07;17.53;;;7.90;94.30;;;;;;5050030;28;20455;-42
2022/03/23 04:15:14;;;;;;;25.40;16.70;;;7.80;94.30;;;;;;5056701;28;20939;-42
2022/03/23 04:17:41;;;;;;;19.60;16.13;;;8.00;94.30;;;;;;5049232;28;20181;-40
2022/03/23 04:20:07;;;;;;;22.63;17.90;;;7.90;94.90;;;;;;5049765;28;20443;-40
2022/03/23 04:22:33;;;;;;;20.70;15.87;;;7.80;94.40;;;;;;5069406;28;20501;-42
2022/03/23 04:24:59;;;;;;;23.90;15.93;;;7.40;94.90;;;;;;5058238;28;20476;-41
2022/03/23 04:27:24;;;;;;;22.40;15.83;;;7.30;96.10;;;;;;5055605;28;20189;-41
2022/03/23 04:29:50;;;;;;;20.30;16.80;;;7.00;96.80;;;;;;5055405;28;20181;-39
2022/03/23 04:32:16;;;;;;;28.73;18.47;;;6.70;97.60;;;;;;5049392;28;20229;-41
2022/03/23 04:34:41;;;;;;;20.40;16.00;;;6.80;98.40;;;;;;5048522;28;20200;-42
2022/03/23 04:37:07;;;;;;;24.30;16.63;;;6.70;99.00;;;;;;5068461;28;20272;-40
2022/03/23 04:39:33;;;;;;;23.37;16.53;;;6.60;99.40;;;;;;5072586;28;20220;-41
2022/03/23 04:41:59;;;;;;;21.47;16.37;;;6.60;99.70;;;;;;5048798;28;20554;-40
2022/03/23 04:44:25;;;;;;;21.27;16.37;;;6.40;99.70;;;;;;5061944;28;20177;-45
2022/03/23 04:46:50;;;;;;;21.13;15.97;;;6.50;99.90;;;;;;5048931;28;20431;-41
2022/03/23 04:49:16;;;;;;;20.43;15.97;;;6.40;99.90;;;;;;5049026;28;20196;-41
2022/03/23 04:51:42;;;;;;;19.43;15.23;;;6.40;99.90;;;;;;5063010;28;20211;-46
2022/03/23 04:54:07;;;;;;;18.47;15.77;;;6.30;99.90;;;;;;5068077;28;20478;-41
2022/03/23 04:56:33;;;;;;;21.20;16.90;;;6.10;99.90;;;;;;5047584;28;20229;-40
2022/03/23 04:58:59;;;;;;;22.13;16.33;;;6.10;99.90;;;;;;5057628;28;20204;-41
2022/03/23 05:01:26;;;;;;;22.07;17.00;;;6.30;99.90;;;;;;5048345;28;20499;-41
2022/03/23 05:03:52;;;;;;;22.17;15.43;;;6.00;99.90;;;;;;5048603;28;20828;-40
2022/03/23 05:06:19;;;;;;;21.73;17.50;;;6.30;99.90;;;;;;5052265;28;20820;-40
2022/03/23 05:08:44;;;;;;;23.17;17.20;;;6.30;99.90;;;;;;5067886;28;20496;-41
2022/03/23 05:11:10;;;;;;;27.80;19.27;;;6.30;99.90;;;;;;5047452;28;20444;-40
2022/03/23 05:13:36;;;;;;;23.47;17.63;;;6.10;99.90;;;;;;5053255;28;20571;-41
2022/03/23 05:16:01;;;;;;;23.73;17.23;;;6.00;99.90;;;;;;5047232;28;20198;-41
2022/03/23 05:18:28;;;;;;;23.23;16.97;;;5.90;99.90;;;;;;5048381;28;20279;-41
2022/03/23 05:20:53;;;;;;;24.70;17.50;;;6.00;99.90;;;;;;5050786;28;20220;-40
2022/03/23 05:23:19;;;;;;;23.10;16.33;;;6.20;99.90;;;;;;5079414;28;20427;-43
2022/03/23 05:25:45;;;;;;;25.07;17.27;;;6.10;99.90;;;;;;5049155;28;20664;-41
2022/03/23 05:28:10;;;;;;;22.93;16.90;;;6.20;99.90;;;;;;5048288;28;20189;-40
2022/03/23 05:30:36;;;;;;;22.50;17.30;;;6.30;99.90;;;;;;5048216;28;20719;-40
2022/03/23 05:33:03;;;;;;;27.00;15.43;;;6.60;99.90;;;;;;5048065;28;20235;-40
2022/03/23 05:35:29;;;;;;;23.47;17.57;;;6.60;99.90;;;;;;5052342;28;21000;-41
2022/03/23 05:37:55;;;;;;;22.30;16.47;;;6.60;99.90;;;;;;5071830;28;20505;-43
2022/03/23 05:40:21;;;;;;;24.57;18.10;;;6.20;99.90;;;;;;5049073;28;20497;-40
2022/03/23 05:42:48;;;;;;;19.53;15.00;;;6.30;99.90;;;;;;5047530;28;20966;-41
2022/03/23 05:45:14;;;;;;;21.50;15.33;;;6.50;99.90;;;;;;5058607;28;20490;-40
2022/03/23 05:47:40;;;;;;;21.23;16.87;;;6.60;99.90;;;;;;5047963;28;20420;-40
2022/03/23 05:50:08;;;;;;;26.20;17.70;;;6.90;99.50;;;;;;5046946;28;22428;-42
2022/03/23 05:52:35;;;;;;;24.67;16.03;;;6.70;99.90;;;;;;5057568;28;20488;-42
2022/03/23 05:55:01;;;;;;;24.30;17.93;;;6.60;99.90;;;;;;5065475;28;20427;-40
2022/03/23 05:57:28;;;;;;;23.00;15.57;;;6.50;99.90;;;;;;5046684;28;20475;-40
2022/03/23 05:59:54;;;;;;;19.60;14.70;;;6.80;99.90;;;;;;5053279;28;20413;-40
2022/03/23 06:02:19;;;;;;;22.53;15.93;;;6.70;98.50;;;;;;5047099;28;20470;-40
2022/03/23 06:04:46;;;;;;;19.10;15.30;;;7.20;99.70;;;;;;5045825;28;20636;-40
2022/03/23 06:07:12;;;;;;;20.73;15.80;;;6.90;99.80;;;;;;5067436;28;20259;-41
2022/03/23 06:09:38;;;;;;;20.53;15.87;;;7.00;99.90;;;;;;5064222;28;20416;-41
2022/03/23 06:12:05;;;;;;;24.37;15.10;;;6.80;99.90;;;;;;5053572;28;20427;-41
2022/03/23 06:14:32;;;;;;;21.90;14.77;;;7.00;99.90;;;;;;5049522;28;20420;-40
2022/03/23 06:16:58;;;;;;;25.20;16.23;;;7.10;99.70;;;;;;5047021;28;21006;-40
2022/03/23 06:19:24;;;;;;;21.30;15.90;;;7.50;98.40;;;;;;5045924;28;20962;-40
2022/03/23 06:21:49;;;;;;;19.17;16.17;;;7.60;97.20;;;;;;5054407;28;20468;-41
2022/03/23 06:24:15;;;;;;;19.23;15.47;;;8.10;96.70;;;;;;5060152;28;20189;-41
2022/03/23 06:26:41;;;;;;;23.90;17.27;;;8.30;96.40;;;;;;5045953;28;20190;-41
2022/03/23 06:29:07;;;;;;;21.57;15.87;;;8.50;96.10;;;;;;5053850;28;20443;-41
2022/03/23 06:31:32;;;;;;;21.70;16.50;;;8.40;96.20;;;;;;5053412;28;20189;-40
2022/03/23 06:33:59;;;;;;;19.67;15.90;;;8.60;95.70;;;;;;5046838;28;20194;-41
2022/03/23 06:36:25;;;;;;;19.30;16.43;;;8.80;95.80;;;;;;5048896;28;20234;-41
2022/03/23 06:38:51;;;;;;;23.37;17.13;;;8.50;96.90;;;;;;5050963;28;20443;-41
2022/03/23 06:41:17;;;;;;;26.03;16.93;;;8.60;97.30;;;;;;5051669;28;20459;-41
2022/03/23 06:43:43;;;;;;;22.97;15.90;;;8.70;97.40;;;;;;5053786;28;20220;-40
2022/03/23 06:46:09;;;;;;;18.63;15.83;;;8.60;97.80;;;;;;5053190;28;20453;-42
2022/03/23 06:48:35;;;;;;;22.90;16.40;;;8.70;96.50;;;;;;5047027;28;20216;-40
2022/03/23 06:51:01;;;;;;;20.43;16.10;;;9.10;94.90;;;;;;5045560;28;20193;-40
2022/03/23 06:53:26;;;;;;;24.27;16.93;;;9.30;94.40;;;;;;5058604;28;20459;-41
2022/03/23 06:55:52;;;;;;;20.27;15.80;;;9.40;94.40;;;;;;5057251;28;20420;-40
2022/03/23 06:58:18;;;;;;;21.03;16.23;;;9.50;94.70;;;;;;5046939;28;20691;-42
2022/03/23 07:00:44;;;;;;;23.60;16.70;;;9.40;95.10;;;;;;5050199;28;20437;-40
2022/03/23 07:03:10;;;;;;;18.70;13.70;;;9.50;94.90;;;;;;5046752;28;20432;-40
2022/03/23 07:05:36;;;;;;;22.87;14.73;;;9.70;91.60;;;;;;5045785;28;20200;-40
2022/03/23 07:10:47;;;;;;;20.77;14.63;;;10.10;86.10;;;;;;5062349;28;20439;-40
2022/03/23 07:13:14;;;;;;;18.77;13.50;;;10.60;83.50;;;;;;5046664;28;20416;-41
2022/03/23 07:15:40;;;;;;;19.90;15.27;;;10.50;81.90;;;;;;5059346;28;20197;-41
2022/03/23 07:18:06;;;;;;;18.67;13.80;;;10.60;81.40;;;;;;5048542;28;20538;-41
2022/03/23 07:20:31;;;;;;;18.90;14.53;;;10.90;80.30;;;;;;5049820;28;20510;-41
2022/03/23 07:22:57;;;;;;;18.57;15.10;;;11.00;80.00;;;;;;5070397;28;20236;-40
2022/03/23 07:25:23;;;;;;;21.57;15.17;;;11.10;79.10;;;;;;5068008;28;20362;-44
2022/03/23 07:27:48;;;;;;;17.13;14.53;;;11.30;78.30;;;;;;5050144;28;20670;-41
2022/03/23 07:30:14;;;;;;;18.20;14.27;;;11.40;76.70;;;;;;5058193;28;20200;-42
2022/03/23 07:32:40;;;;;;;18.43;13.30;;;11.60;74.90;;;;;;5050410;28;20198;-44
2022/03/23 07:35:07;;;;;;;17.33;13.20;;;11.70;74.20;;;;;;5050359;28;20544;-40
2022/03/23 07:37:34;;;;;;;18.30;14.53;;;11.90;74.00;;;;;;5069574;28;20192;-42
2022/03/23 07:40:00;;;;;;;18.60;14.00;;;12.10;73.40;;;;;;5064289;28;20450;-42
2022/03/23 07:42:26;;;;;;;17.93;13.83;;;12.30;72.00;;;;;;5060340;28;20471;-40
2022/03/23 07:44:51;;;;;;;17.27;13.57;;;12.50;71.00;;;;;;5053275;28;20427;-40
2022/03/23 07:47:17;;;;;;;18.00;14.23;;;12.70;70.70;;;;;;5049972;28;20572;-44
2022/03/23 07:49:43;;;;;;;17.67;14.43;;;12.90;69.40;;;;;;5048338;28;20221;-43
2022/03/23 07:52:09;;;;;;;19.43;14.70;;;13.00;69.20;;;;;;5058504;28;20273;-42
2022/03/23 07:54:35;;;;;;;18.67;14.43;;;13.20;69.60;;;;;;5079683;28;20431;-41
2022/03/23 07:57:02;;;;;;;17.47;14.67;;;13.40;68.30;;;;;;5048227;28;20502;-41
2022/03/23 07:59:28;;;;;;;17.23;13.93;;;13.50;67.20;;;;;;5051435;28;21004;-40
2022/03/23 08:01:54;;;;;;;18.63;14.30;;;13.70;68.60;;;;;;5059478;28;20483;-40
2022/03/23 08:04:20;;;;;;;20.90;14.90;;;13.80;67.70;;;;;;5049623;28;20432;-42
2022/03/23 08:06:45;;;;;;;25.60;15.23;;;14.00;66.30;;;;;;5049893;28;20272;-42
2022/03/23 08:09:11;;;;;;;18.03;14.13;;;14.20;65.60;;;;;;5069744;28;20182;-40
2022/03/23 08:11:37;;;;;;;19.80;14.50;;;14.20;63.40;;;;;;5061681;28;20267;-40
2022/03/23 08:14:03;;;;;;;17.87;14.00;;;14.30;62.80;;;;;;5049530;28;20201;-41
2022/03/23 08:16:29;;;;;;;17.00;14.63;;;14.40;62.00;;;;;;5056764;28;20198;-40
2022/03/23 08:18:55;;;;;;;17.73;14.67;;;14.40;61.80;;;;;;5049531;28;20444;-41
2022/03/23 08:21:23;;;;;;;16.50;14.03;;;14.50;64.40;;;;;;5047992;28;21006;-41
2022/03/23 08:23:49;;;;;;;17.60;13.30;;;14.60;63.40;;;;;;5067484;28;20459;-42
2022/03/23 08:26:16;;;;;;;17.53;14.17;;;14.60;63.50;;;;;;5074799;28;20744;-40
2022/03/23 08:28:43;;;;;;;17.10;14.80;;;14.70;62.10;;;;;;5052416;28;20432;-41
2022/03/23 08:31:10;;;;;;;16.50;14.40;;;14.80;61.90;;;;;;5052755;28;20440;-41
2022/03/23 08:33:36;;;;;;;18.17;14.97;;;14.80;60.50;;;;;;5049109;28;20431;-41
2022/03/23 08:36:04;;;;;;;18.87;14.50;;;14.80;60.70;;;;;;5049020;28;20436;-42
2022/03/23 08:38:30;;;;;;;17.70;14.90;;;14.90;62.80;;;;;;5057528;28;20918;-41
2022/03/23 08:40:55;;;;;;;18.90;15.20;;;14.90;63.00;;;;;;5068306;28;20436;-43
2022/03/23 08:43:21;;;;;;;18.50;14.73;;;15.00;63.00;;;;;;5049021;28;20880;-41
2022/03/23 08:45:47;;;;;;;18.30;15.60;;;15.00;64.20;;;;;;5049039;28;20393;-42
2022/03/23 08:48:13;;;;;;;16.10;14.10;;;15.10;63.50;;;;;;5049112;28;20193;-42
2022/03/23 08:50:42;;;;;;;21.23;15.93;;;15.10;62.10;;;;;;5048317;28;20424;-40
2022/03/23 08:53:08;;;;;;;20.07;15.47;;;15.20;63.10;;;;;;5052870;28;20571;-42
2022/03/23 08:55:33;;;;;;;19.13;14.73;;;15.30;61.30;;;;;;5061635;28;20546;-40
2022/03/23 08:57:59;;;;;;;23.10;14.50;;;15.40;62.20;;;;;;5048762;28;20371;-41
2022/03/23 09:00:26;;;;;;;18.50;14.03;;;15.40;59.60;;;;;;5054169;28;20662;-41
2022/03/23 09:02:52;;;;;;;18.57;15.70;;;15.50;61.40;;;;;;5051225;28;20209;-41
2022/03/23 09:05:19;;;;;;;20.17;14.87;;;15.60;61.60;;;;;;5048606;28;20429;-41
2022/03/23 09:07:45;;;;;;;19.40;15.63;;;15.70;60.80;;;;;;5054622;28;20523;-42
2022/03/23 09:10:13;;;;;;;19.57;15.17;;;15.80;60.90;;;;;;5073950;28;20462;-41
2022/03/23 09:12:39;;;;;;;17.13;14.60;;;15.90;63.00;;;;;;5050316;28;20432;-42
2022/03/23 09:15:07;;;;;;;16.90;14.87;;;16.10;63.00;;;;;;5050966;28;20433;-41
2022/03/23 09:17:33;;;;;;;16.07;14.37;;;16.20;62.50;;;;;;5048451;28;20431;-42
2022/03/23 09:20:00;;;;;;;17.60;15.47;;;16.30;59.00;;;;;;5046690;28;20432;-41
2022/03/23 09:22:27;;;;;;;16.07;14.37;;;16.40;59.40;;;;;;5054547;28;21043;-41
2022/03/23 09:24:53;;;;;;;16.50;14.40;;;16.60;58.00;;;;;;5073643;28;20418;-40
2022/03/23 09:27:19;;;;;;;16.80;15.00;;;16.80;56.60;;;;;;5048573;28;20432;-44
2022/03/23 09:29:45;;;;;;;17.43;15.10;;;16.90;55.10;;;;;;5047871;28;20504;-43
2022/03/23 09:32:12;;;;;;;18.33;14.80;;;17.10;55.80;;;;;;5047919;28;20189;-41
2022/03/23 09:34:39;;;;;;;18.07;14.73;;;17.20;53.70;;;;;;5048171;28;20443;-43
2022/03/23 09:39:50;;;;;;;19.53;15.53;;;17.50;54.90;;;;;;5061018;28;20486;-42
2022/03/23 09:42:18;;;;;;;23.23;17.23;;;17.80;51.10;;;;;;5060070;28;20591;-41
2022/03/23 09:44:45;;;;;;;17.07;15.27;;;17.90;51.00;;;;;;5048006;28;20514;-42
2022/03/23 09:47:11;;;;;;;16.80;14.80;;;18.10;52.20;;;;;;5055839;28;20726;-43
2022/03/23 09:49:38;;;;;;;16.70;14.90;;;18.30;50.80;;;;;;5047234;28;20416;-41
2022/03/23 09:52:05;;;;;;;19.00;15.37;;;18.40;52.00;;;;;;5049584;28;20546;-42
2022/03/23 09:54:31;;;;;;;18.53;14.80;;;18.50;51.40;;;;;;5065021;28;20422;-41
2022/03/23 09:56:56;;;;;;;20.10;15.90;;;18.70;51.30;;;;;;5059984;28;20486;-41
2022/03/23 09:59:22;;;;;;;16.13;14.43;;;18.70;50.90;;;;;;5047627;28;20193;-41
2022/03/23 10:01:49;;;;;;;20.70;15.87;;;18.70;47.90;;;;;;5052451;28;20220;-41
2022/03/23 10:04:17;;;;;;;16.33;14.47;;;18.60;49.80;;;;;;5047108;28;20186;-42
2022/03/23 10:07:02;;;;;;;19.20;15.07;;;18.80;51.40;;;;;;5047427;28;20455;-41
2022/03/23 10:10:00;;;;;;;17.50;15.60;;;19.00;49.20;;;;;;5075780;28;20704;-44
2022/03/23 10:13:13;;;;;;;21.27;15.43;;;19.20;47.80;;;;;;5049486;28;21033;-43
2022/03/23 10:16:25;;;;;;;17.43;14.37;;;19.50;47.90;;;;;;5047687;28;20518;-42
2022/03/23 10:18:58;;;;;;;16.77;14.93;;;19.70;47.00;;;;;;5046686;28;20433;-42
2022/03/23 10:21:32;;;;;;;17.10;15.30;;;19.90;46.10;;;;;;5045417;28;20467;-43
2022/03/23 10:23:58;;;;;;;18.10;15.93;;;20.00;46.30;;;;;;5061026;28;20467;-43
2022/03/23 10:26:25;;;;;;;17.83;15.93;;;20.00;46.00;;;;;;5064273;28;20854;-42
2022/03/23 10:28:51;;;;;;;17.70;15.27;;;20.20;47.80;;;;;;5046926;28;20186;-43
2022/03/23 10:31:22;;;;;;;19.33;17.20;;;20.00;45.50;;;;;;5054040;28;20461;-42
2022/03/23 10:34:08;;;;;;;17.20;15.43;;;20.20;47.90;;;;;;5048354;28;20830;-42
2022/03/23 10:36:40;;;;;;;17.43;15.30;;;20.40;47.90;;;;;;5047316;28;20436;-42
2022/03/23 10:39:11;;;;;;;18.63;15.77;;;20.70;47.50;;;;;;5048002;28;20443;-41
2022/03/23 10:41:37;;;;;;;18.40;16.20;;;20.60;46.30;;;;;;5064346;28;20460;-41
2022/03/23 10:44:03;;;;;;;19.97;16.30;;;20.60;44.90;;;;;;5046931;28;20436;-41
2022/03/23 10:46:29;;;;;;;16.67;14.70;;;20.60;43.40;;;;;;5052694;28;20423;-43
2022/03/23 10:49:02;;;;;;;16.30;13.10;;;20.50;42.60;;;;;;5047145;28;20560;-43
2022/03/23 10:51:34;;;;;;;16.10;13.57;;;20.50;41.60;;;;;;5046481;28;20205;-41
2022/03/23 10:54:16;;;;;;;14.80;13.23;;;20.60;41.80;;;;;;5059008;28;20454;-44
2022/03/23 10:56:42;;;;;;;16.60;14.07;;;20.60;42.30;;;;;;5068768;28;20982;-41
2022/03/23 10:59:26;;;;;;;16.80;13.90;;;20.70;42.20;;;;;;5051384;28;20815;-41
2022/03/23 11:01:58;;;;;;;17.13;14.50;;;20.80;42.20;;;;;;5051942;28;20834;-42
2022/03/23 11:04:45;;;;;;;15.80;14.13;;;20.90;41.60;;;;;;5051337;28;20424;-42
2022/03/23 11:07:25;;;;;;;15.57;13.97;;;20.80;41.00;;;;;;5051135;28;20478;-42
2022/03/23 11:15:53;;;;;;;15.17;13.63;;;20.70;40.40;;;;;;5070515;28;20431;-42
2022/03/23 11:18:15;;;;;;;15.50;14.00;;;20.60;41.20;;;;;;5047685;28;20439;-41
2022/03/23 11:20:42;;;;;;;17.00;13.87;;;20.70;42.50;;;;;;5062395;28;20514;-41
2022/03/23 11:23:24;;;;;;;16.63;14.83;;;20.80;41.80;;;;;;5052514;28;21143;-43
2022/03/23 11:25:55;;;;;;;16.40;14.70;;;21.00;40.00;;;;;;5052856;28;20832;-44
2022/03/23 11:28:21;;;;;;;16.33;14.57;;;21.00;40.00;;;;;;5068184;28;20896;-44
2022/03/23 11:30:48;;;;;;;20.30;16.03;;;20.90;38.70;;;;;;5058606;28;20424;-40
2022/03/23 11:33:17;;;;;;;17.17;15.37;;;20.80;39.70;;;;;;5050183;28;20490;-43
2022/03/23 11:35:48;;;;;;;16.00;14.40;;;20.60;38.40;;;;;;5058500;28;20482;-42
2022/03/23 11:38:17;;;;;;;16.70;14.90;;;20.80;40.90;;;;;;5050134;28;20428;-42
2022/03/23 11:40:44;;;;;;;19.07;15.33;;;20.90;40.30;;;;;;5049285;28;20466;-41
2022/03/23 11:43:14;;;;;;;17.17;15.23;;;21.00;39.10;;;;;;5073766;28;20965;-41
2022/03/23 11:45:42;;;;;;;18.67;15.00;;;21.00;39.50;;;;;;5067453;28;20524;-42
2022/03/23 11:48:35;;;;;;;17.80;15.90;;;20.90;38.80;;;;;;5049780;28;20416;-42
2022/03/23 11:51:26;;;;;;;19.43;16.43;;;21.00;40.20;;;;;;5054033;28;20447;-41
2022/03/23 11:54:10;;;;;;;16.90;15.10;;;21.10;40.20;;;;;;5049977;28;20611;-43
2022/03/23 11:56:51;;;;;;;19.20;15.20;;;21.20;41.60;;;;;;5054653;28;20953;-44
2022/03/23 11:59:24;;;;;;;17.37;15.37;;;21.50;41.80;;;;;;5080165;28;20779;-45
2022/03/23 12:01:50;;;;;;;18.17;15.23;;;21.40;38.40;;;;;;5049272;28;20562;-42
2022/03/23 12:04:19;;;;;;;17.03;15.23;;;21.50;39.90;;;;;;5049511;28;20518;-42
2022/03/23 12:06:45;;;;;;;16.20;14.70;;;21.40;39.00;;;;;;5049774;28;20476;-44
2022/03/23 12:09:34;;;;;;;18.20;16.40;;;21.30;40.10;;;;;;5052422;28;20435;-41
2022/03/23 12:12:05;;;;;;;21.30;17.50;;;21.20;41.00;;;;;;5061052;28;20436;-41
2022/03/23 12:14:38;;;;;;;19.00;17.10;;;21.30;41.30;;;;;;5069018;28;20638;-42
2022/03/23 12:17:15;;;;;;;18.77;16.83;;;21.30;40.10;;;;;;5052239;28;20459;-43
2022/03/23 12:20:05;;;;;;;18.60;16.30;;;21.30;39.80;;;;;;5053822;28;20574;-43
2022/03/23 12:22:41;;;;;;;19.90;17.03;;;21.40;42.70;;;;;;5051744;28;20468;-42
2022/03/23 12:25:27;;;;;;;18.77;16.70;;;21.50;43.60;;;;;;5049328;28;20420;-41
2022/03/23 12:28:18;;;;;;;18.47;16.43;;;21.70;43.00;;;;;;5067019;28;20426;-44
2022/03/23 12:31:01;;;;;;;19.67;16.57;;;21.70;41.30;;;;;;5062847;28;20443;-45
2022/03/23 12:33:29;;;;;;;19.10;16.77;;;21.80;43.20;;;;;;5049280;28;20501;-41
2022/03/23 12:36:00;;;;;;;19.47;17.50;;;21.90;41.50;;;;;;5052900;28;20433;-45
2022/03/23 12:38:28;;;;;;;18.53;16.63;;;21.70;41.10;;;;;;5048924;28;21154;-44
2022/03/23 12:40:56;;;;;;;20.77;18.17;;;21.60;41.10;;;;;;5047911;28;20794;-42
2022/03/23 12:43:42;;;;;;;18.50;16.53;;;21.70;40.10;;;;;;5076142;28;20799;-42
2022/03/23 12:46:26;;;;;;;19.97;17.70;;;21.70;39.20;;;;;;5057987;28;20489;-44
2022/03/23 12:57:55;;;;;;;22.33;19.50;;;21.40;39.10;;;;;;5055836;28;20450;-42
2022/03/23 13:00:27;;;;;;;20.13;18.07;;;21.40;39.40;;;;;;5051556;28;20432;-44
2022/03/23 13:03:05;;;;;;;20.53;18.33;;;21.20;39.10;;;;;;5050576;28;20472;-44
2022/03/23 13:05:53;;;;;;;20.70;18.60;;;21.10;39.70;;;;;;5057501;28;20500;-41
2022/03/23 13:08:33;;;;;;;22.63;18.53;;;21.00;39.40;;;;;;5044926;28;20531;-42
2022/03/23 13:11:07;;;;;;;21.40;17.50;;;21.00;40.40;;;;;;5065747;28;20929;-45
2022/03/23 13:13:37;;;;;;;24.30;19.90;;;21.00;40.10;;;;;;5057592;28;20523;-43